createdAt,value
2019-06-10T00:01:41.011Z,12.03
2019-06-10T00:04:12.433Z,10.07
2019-06-10T00:06:41.520Z,10.33
2019-06-10T00:09:11.747Z,10.23
2019-06-10T00:11:41.166Z,10.17
2019-06-10T00:14:10.818Z,11.77
2019-06-10T00:16:41.579Z,9.23
2019-06-10T00:19:12.701Z,9.40
2019-06-10T00:21:41.327Z,12.07
2019-06-10T00:24:11.847Z,9.17
2019-06-10T00:26:42.966Z,9.60
2019-06-10T00:29:12.099Z,8.90
2019-06-10T00:31:41.729Z,9.40
2019-06-10T00:34:12.333Z,9.97
2019-06-10T00:36:44.357Z,10.47
2019-06-10T00:39:13.767Z,8.87
2019-06-10T00:41:42.968Z,9.43
2019-06-10T00:44:12.796Z,8.60
2019-06-10T00:46:41.799Z,8.03
2019-06-10T00:49:14.405Z,8.67
2019-06-10T00:51:41.509Z,9.37
2019-06-10T00:54:15.074Z,8.63
2019-06-10T00:56:41.417Z,8.70
2019-06-10T00:59:12.760Z,9.70
2019-06-10T01:01:41.607Z,8.60
2019-06-10T01:04:14.379Z,7.93
2019-06-10T01:06:42.337Z,8.43
2019-06-10T01:09:13.539Z,9.00
2019-06-10T01:11:42.032Z,9.43
2019-06-10T01:14:12.611Z,6.97
2019-06-10T01:16:41.355Z,6.83
2019-06-10T01:19:12.449Z,8.90
2019-06-10T01:21:41.544Z,6.90
2019-06-10T01:24:31.399Z,7.40
2019-06-10T01:27:01.312Z,7.13
2019-06-10T01:29:31.902Z,7.47
2019-06-10T01:32:01.701Z,5.83
2019-06-10T01:34:31.171Z,6.27
2019-06-10T01:37:01.471Z,6.30
2019-06-10T01:39:30.994Z,8.00
2019-06-10T01:42:00.626Z,6.83
2019-06-10T01:44:31.040Z,7.33
2019-06-10T01:47:01.021Z,7.50
2019-06-10T01:49:30.836Z,7.30
2019-06-10T01:52:01.608Z,7.23
2019-06-10T01:54:31.712Z,7.00
2019-06-10T01:57:01.505Z,5.27
2019-06-10T01:59:31.136Z,6.10
2019-06-10T02:02:07.575Z,5.13
2019-06-10T02:04:36.477Z,5.53
2019-06-10T02:07:06.264Z,5.00
2019-06-10T02:09:35.033Z,6.83
2019-06-10T02:12:04.380Z,5.10
2019-06-10T02:14:33.173Z,5.67
2019-06-10T02:17:01.985Z,6.97
2019-06-10T02:19:31.342Z,8.57
2019-06-10T02:22:01.298Z,13.33
2019-06-10T02:24:31.551Z,11.37
2019-06-10T02:27:01.071Z,10.27
2019-06-10T02:29:30.808Z,12.13
2019-06-10T02:32:04.322Z,10.67
2019-06-10T02:34:34.117Z,10.67
2019-06-10T02:37:04.352Z,9.73
2019-06-10T02:39:35.091Z,11.03
2019-06-10T02:42:07.779Z,9.30
2019-06-10T02:44:37.829Z,10.40
2019-06-10T02:47:06.878Z,9.17
2019-06-10T02:49:56.493Z,9.13
2019-06-10T02:52:20.173Z,7.87
2019-06-10T02:54:48.779Z,9.57
2019-06-10T02:57:18.760Z,8.33
2019-06-10T02:59:48.473Z,8.70
2019-06-10T03:02:18.296Z,7.07
2019-06-10T03:04:47.906Z,8.17
2019-06-10T03:07:17.936Z,6.57
2019-06-10T03:09:46.983Z,7.03
2019-06-10T03:12:15.758Z,7.83
2019-06-10T03:14:44.735Z,7.07
2019-06-10T03:17:17.708Z,6.43
2019-06-10T03:19:50.390Z,7.07
2019-06-10T03:22:18.000Z,5.87
2019-06-10T03:24:46.983Z,5.23
2019-06-10T03:27:16.338Z,6.70
2019-06-10T03:29:45.627Z,6.40
2019-06-10T03:32:16.096Z,8.33
2019-06-10T03:34:47.305Z,5.97
2019-06-10T03:37:16.307Z,6.37
2019-06-10T03:39:45.246Z,5.87
2019-06-10T03:42:14.031Z,5.37
2019-06-10T03:44:43.119Z,5.30
2019-06-10T03:47:12.212Z,5.33
2019-06-10T03:49:51.725Z,5.97
2019-06-10T03:52:12.933Z,4.93
2019-06-10T03:54:43.293Z,5.70
2019-06-10T03:57:12.512Z,4.70
2019-06-10T03:59:42.231Z,4.70
2019-06-10T04:02:12.787Z,5.03
2019-06-10T04:04:42.987Z,4.23
2019-06-10T04:07:14.269Z,6.73
2019-06-10T04:09:42.609Z,4.73
2019-06-10T04:12:12.559Z,4.93
2019-06-10T04:14:41.986Z,5.73
2019-06-10T04:17:12.947Z,5.70
2019-06-10T04:19:42.131Z,4.30
2019-06-10T04:22:12.930Z,6.97
2019-06-10T04:24:43.126Z,6.13
2019-06-10T04:27:12.325Z,4.57
2019-06-10T04:29:42.162Z,4.13
2019-06-10T04:32:12.268Z,5.33
2019-06-10T04:34:43.326Z,5.53
2019-06-10T04:37:12.423Z,4.50
2019-06-10T04:39:42.734Z,6.47
2019-06-10T04:42:12.988Z,3.73
2019-06-10T04:44:42.367Z,4.40
2019-06-10T04:47:12.041Z,3.47
2019-06-10T04:49:42.842Z,7.93
2019-06-10T04:52:12.268Z,5.30
2019-06-10T04:54:42.160Z,11.70
2019-06-10T04:57:12.785Z,7.23
2019-06-10T04:59:42.831Z,6.80
2019-06-10T05:02:12.789Z,4.53
2019-06-10T05:04:42.602Z,13.70
2019-06-10T05:07:12.589Z,6.33
2019-06-10T05:09:42.212Z,7.97
2019-06-10T05:12:12.135Z,138.17
2019-06-10T05:14:43.145Z,45.30
2019-06-10T05:17:12.728Z,54.07
2019-06-10T05:19:42.849Z,46.73
2019-06-10T05:22:12.369Z,39.63
2019-06-10T05:24:42.425Z,34.93
2019-06-10T05:27:12.502Z,22.70
2019-06-10T05:29:42.235Z,21.97
2019-06-10T05:32:12.767Z,21.40
2019-06-10T05:34:43.673Z,25.43
2019-06-10T05:37:12.428Z,13.70
2019-06-10T05:39:42.423Z,13.60
2019-06-10T05:42:12.803Z,9.87
2019-06-10T05:44:43.079Z,9.00
2019-06-10T05:47:12.630Z,5.43
2019-06-10T05:49:43.079Z,6.67
2019-06-10T05:52:12.584Z,6.10
2019-06-10T05:54:43.151Z,4.63
2019-06-10T05:57:12.213Z,4.17
2019-06-10T05:59:43.217Z,4.17
2019-06-10T06:02:12.901Z,4.60
2019-06-10T06:04:42.839Z,4.53
2019-06-10T06:07:12.865Z,5.30
2019-06-10T06:09:42.693Z,6.40
2019-06-10T06:12:14.183Z,4.83
2019-06-10T06:14:42.581Z,3.93
2019-06-10T06:17:12.729Z,3.37
2019-06-10T06:19:43.314Z,5.97
2019-06-10T06:22:12.974Z,5.40
2019-06-10T06:24:42.756Z,3.70
2019-06-10T06:27:13.111Z,4.83
2019-06-10T06:29:43.161Z,4.93
2019-06-10T06:32:13.227Z,3.07
2019-06-10T06:35:02.133Z,6.30
2019-06-10T06:37:34.686Z,12.10
2019-06-10T06:40:02.853Z,5.47
2019-06-10T06:42:33.468Z,3.93
2019-06-10T06:45:02.985Z,7.50
2019-06-10T06:47:34.046Z,4.43
2019-06-10T06:50:02.834Z,4.30
2019-06-10T06:53:07.733Z,3.40
2019-06-10T06:55:02.640Z,4.50
2019-06-10T06:57:33.877Z,3.73
2019-06-10T07:00:29.854Z,4.13
2019-06-10T07:02:34.559Z,8.17
2019-06-10T07:05:03.542Z,3.87
2019-06-10T07:07:33.157Z,4.60
2019-06-10T07:10:03.472Z,3.03
2019-06-10T07:12:33.738Z,3.30
2019-06-10T07:15:04.300Z,8.77
2019-06-10T07:17:34.531Z,3.77
2019-06-10T07:20:04.755Z,7.67
2019-06-10T07:22:36.206Z,2.47
2019-06-10T07:25:06.630Z,10.20
2019-06-10T07:27:38.355Z,4.13
2019-06-10T07:30:11.805Z,2.23
2019-06-10T07:32:39.198Z,5.33
2019-06-10T07:35:08.720Z,3.20
2019-06-10T07:37:38.199Z,5.73
2019-06-10T07:40:09.531Z,2.73
2019-06-10T07:42:39.004Z,4.67
2019-06-10T07:45:08.029Z,7.93
2019-06-10T07:47:56.100Z,3.20
2019-06-10T07:50:24.975Z,1.30
2019-06-10T07:52:53.939Z,2.67
2019-06-10T07:55:22.752Z,3.00
2019-06-10T07:57:53.039Z,3.60
2019-06-10T08:00:22.703Z,3.47
2019-06-10T08:02:52.997Z,3.30
2019-06-10T08:05:23.561Z,3.37
2019-06-10T08:07:54.742Z,1.67
2019-06-10T08:10:23.324Z,3.57
2019-06-10T08:12:52.508Z,3.80
2019-06-10T08:15:22.988Z,6.47
2019-06-10T08:17:53.099Z,1.90
2019-06-10T08:20:42.216Z,1.80
2019-06-10T08:23:12.496Z,2.27
2019-06-10T08:25:43.771Z,3.60
2019-06-10T08:28:13.397Z,2.77
2019-06-10T08:30:44.533Z,1.77
2019-06-10T08:33:13.800Z,2.87
2019-06-10T08:35:52.140Z,2.63
2019-06-10T08:38:13.499Z,1.77
2019-06-10T08:40:44.993Z,2.53
2019-06-10T08:43:13.369Z,2.30
2019-06-10T08:45:44.179Z,3.27
2019-06-10T08:48:13.342Z,2.33
2019-06-10T08:50:46.580Z,2.93
2019-06-10T08:53:15.594Z,2.37
2019-06-10T08:55:46.113Z,3.77
2019-06-10T08:58:14.024Z,2.93
2019-06-10T09:00:45.101Z,2.87
2019-06-10T09:03:13.307Z,2.63
2019-06-10T09:05:46.191Z,2.30
2019-06-10T09:08:13.010Z,3.10
2019-06-10T09:10:45.714Z,3.93
2019-06-10T09:13:13.462Z,2.30
2019-06-10T09:16:12.815Z,2.07
2019-06-10T09:18:33.707Z,2.07
2019-06-10T09:21:02.800Z,2.97
2019-06-10T09:23:33.234Z,2.60
2019-06-10T09:26:03.505Z,2.20
2019-06-10T09:28:55.833Z,2.37
2019-06-10T09:31:23.758Z,2.50
2019-06-10T09:33:56.677Z,2.43
2019-06-10T09:36:23.705Z,2.10
2019-06-10T09:38:54.942Z,3.23
2019-06-10T09:41:36.001Z,2.23
2019-06-10T09:43:57.062Z,2.00
2019-06-10T09:46:24.384Z,1.80
2019-06-10T09:48:55.838Z,2.33
2019-06-10T09:51:23.912Z,2.07
2019-06-10T09:54:02.077Z,2.13
2019-06-10T09:56:23.559Z,2.50
2019-06-10T09:58:55.122Z,1.50
2019-06-10T10:01:24.486Z,2.07
2019-06-10T10:03:59.754Z,2.67
2019-06-10T10:06:24.159Z,1.67
2019-06-10T10:08:58.019Z,1.83
2019-06-10T10:11:27.564Z,2.00
2019-06-10T10:13:54.350Z,2.03
2019-06-10T10:16:23.222Z,2.60
2019-06-10T10:18:57.513Z,2.37
2019-06-10T10:21:22.679Z,2.20
2019-06-10T10:24:06.314Z,2.73
2019-06-10T10:26:22.100Z,2.40
2019-06-10T10:28:54.109Z,1.53
2019-06-10T10:31:23.327Z,2.47
2019-06-10T10:33:52.688Z,2.13
2019-06-10T10:36:22.623Z,1.93
2019-06-10T10:38:52.332Z,3.00
2019-06-10T10:41:23.472Z,3.07
2019-06-10T10:43:58.128Z,2.93
2019-06-10T10:46:23.959Z,2.77
2019-06-10T10:48:55.214Z,2.90
2019-06-10T10:51:23.428Z,2.00
2019-06-10T10:54:20.126Z,2.27
2019-06-10T10:56:22.859Z,2.70
2019-06-10T10:58:55.892Z,4.63
2019-06-10T11:01:23.483Z,3.83
2019-06-10T11:03:58.809Z,6.93
2019-06-10T11:06:23.460Z,6.63
2019-06-10T11:08:55.879Z,8.70
2019-06-10T11:11:23.665Z,10.30
2019-06-10T11:13:56.589Z,12.40
2019-06-10T11:16:23.772Z,8.83
2019-06-10T11:18:56.188Z,12.80
2019-06-10T11:21:23.482Z,14.07
2019-06-10T11:23:56.925Z,14.37
2019-06-10T11:26:26.100Z,11.77
2019-06-10T11:28:55.644Z,13.50
2019-06-10T11:31:23.968Z,15.40
2019-06-10T11:33:57.024Z,13.63
2019-06-10T11:36:23.751Z,15.17
2019-06-10T11:38:54.952Z,14.17
2019-06-10T11:41:23.801Z,12.33
2019-06-10T11:43:56.052Z,11.80
2019-06-10T11:46:23.232Z,13.47
2019-06-10T11:48:55.648Z,12.73
2019-06-10T11:51:23.493Z,16.80
2019-06-10T11:53:54.597Z,13.27
2019-06-10T11:56:23.308Z,14.33
2019-06-10T11:58:55.149Z,11.43
2019-06-10T12:01:23.007Z,13.80
2019-06-10T12:03:54.010Z,14.70
2019-06-10T12:06:22.998Z,12.70
2019-06-10T12:08:57.311Z,13.83
2019-06-10T12:11:23.226Z,12.43
2019-06-10T12:13:57.653Z,11.70
2019-06-10T12:18:56.998Z,11.30
2019-06-10T12:21:25.111Z,11.10
2019-06-10T12:23:58.633Z,12.30
2019-06-10T12:26:25.105Z,14.17
2019-06-10T12:28:56.305Z,13.30
2019-06-10T12:31:24.603Z,10.37
2019-06-10T12:33:56.782Z,10.57
2019-06-10T12:36:24.020Z,10.30
2019-06-10T12:38:56.413Z,9.17
2019-06-10T12:41:23.626Z,8.77
2019-06-10T12:43:54.478Z,11.90
2019-06-10T12:46:23.456Z,10.60
2019-06-10T12:48:53.971Z,8.80
2019-06-10T12:51:23.226Z,7.80
2019-06-10T12:53:53.196Z,8.53
2019-06-10T12:56:22.945Z,7.37
2019-06-10T12:58:54.098Z,8.70
2019-06-10T13:01:22.417Z,7.40
2019-06-10T13:03:53.637Z,6.60
2019-06-10T13:06:23.514Z,7.77
2019-06-10T13:08:53.112Z,7.53
2019-06-10T13:11:23.434Z,6.33
2019-06-10T13:13:53.048Z,8.10
2019-06-10T13:16:22.052Z,6.67
2019-06-10T13:18:52.508Z,7.50
2019-06-10T13:21:22.763Z,7.07
2019-06-10T13:23:54.166Z,6.77
2019-06-10T13:26:23.151Z,7.63
2019-06-10T13:28:52.566Z,8.47
2019-06-10T13:31:23.575Z,6.77
2019-06-10T13:33:52.931Z,6.80
2019-06-10T13:36:25.841Z,7.50
2019-06-10T13:38:53.229Z,6.83
2019-06-10T13:41:22.822Z,6.03
2019-06-10T13:43:52.880Z,7.10
2019-06-10T13:46:24.643Z,7.33
2019-06-10T13:48:53.160Z,5.63
2019-06-10T13:51:22.003Z,6.57
2019-06-10T13:53:53.590Z,6.93
2019-06-10T13:56:39.755Z,5.73
2019-06-10T13:58:52.791Z,7.47
2019-06-10T14:01:22.375Z,5.80
2019-06-10T14:03:53.682Z,5.70
2019-06-10T14:06:39.583Z,5.97
2019-06-10T14:08:54.831Z,5.97
2019-06-10T14:11:27.930Z,6.87
2019-06-10T14:13:54.066Z,7.77
2019-06-10T14:16:23.625Z,9.53
2019-06-10T14:18:54.089Z,6.90
2019-06-10T14:21:23.710Z,6.93
2019-06-10T14:23:52.674Z,9.10
2019-06-10T14:26:36.598Z,8.13
2019-06-10T14:28:52.602Z,7.63
2019-06-10T14:31:39.577Z,8.60
2019-06-10T14:33:53.270Z,8.03
2019-06-10T14:36:22.301Z,8.30
2019-06-10T14:38:51.345Z,11.03
2019-06-10T14:41:25.672Z,8.93
2019-06-10T14:43:53.103Z,10.10
2019-06-10T14:46:23.122Z,8.43
2019-06-10T14:48:53.305Z,8.57
2019-06-10T14:51:22.952Z,13.73
2019-06-10T14:53:52.067Z,9.57
2019-06-10T14:56:23.330Z,8.80
2019-06-10T14:58:52.958Z,8.93
2019-06-10T15:01:25.559Z,11.23
2019-06-10T15:03:52.702Z,9.97
2019-06-10T15:06:43.176Z,10.63
2019-06-10T15:09:11.579Z,10.13
2019-06-10T15:11:42.646Z,11.23
2019-06-10T15:14:14.229Z,12.87
2019-06-10T15:16:43.809Z,11.07
2019-06-10T15:19:19.923Z,11.77
2019-06-10T15:21:42.912Z,12.23
2019-06-10T15:24:12.040Z,11.57
2019-06-10T15:26:42.274Z,11.43
2019-06-10T15:29:13.959Z,11.67
2019-06-10T15:31:42.836Z,13.03
2019-06-10T15:34:15.029Z,13.27
2019-06-10T15:36:43.284Z,13.40
2019-06-10T15:39:16.456Z,13.87
2019-06-10T15:41:42.983Z,14.00
2019-06-10T15:44:14.609Z,15.10
2019-06-10T15:46:43.187Z,16.00
2019-06-10T15:49:16.384Z,15.43
2019-06-10T15:51:43.560Z,15.73
2019-06-10T15:54:14.049Z,17.40
2019-06-10T15:56:51.963Z,17.97
2019-06-10T15:59:16.368Z,17.87
2019-06-10T16:01:44.570Z,19.93
2019-06-10T16:04:15.704Z,22.10
2019-06-10T16:06:44.372Z,21.60
2019-06-10T16:09:14.189Z,23.07
2019-06-10T16:11:44.095Z,24.67
2019-06-10T16:14:14.663Z,26.03
2019-06-10T16:16:43.734Z,26.23
2019-06-10T16:19:14.632Z,27.60
2019-06-10T16:21:43.362Z,29.87
2019-06-10T16:24:14.735Z,34.67
2019-06-10T16:26:43.013Z,34.17
2019-06-10T16:29:12.312Z,39.40
2019-06-10T16:31:42.583Z,42.63
2019-06-10T16:34:12.796Z,40.73
2019-06-10T16:36:42.775Z,44.97
2019-06-10T16:39:12.505Z,41.73
2019-06-10T16:41:43.065Z,43.43
2019-06-10T16:44:13.632Z,43.03
2019-06-10T16:46:43.222Z,46.73
2019-06-10T16:49:12.786Z,45.93
2019-06-10T16:51:42.975Z,47.67
2019-06-10T16:54:12.988Z,1686.23
2019-06-10T16:56:43.493Z,1999.90
2019-06-10T16:59:12.584Z,1988.47
2019-06-10T17:01:42.805Z,612.50
2019-06-10T17:04:12.475Z,854.87
2019-06-10T17:06:42.186Z,426.00
2019-06-10T17:09:13.301Z,583.27
2019-06-10T17:11:42.635Z,505.93
2019-06-10T17:14:12.525Z,434.77
2019-06-10T17:16:41.803Z,323.50
2019-06-10T17:19:10.822Z,266.93
2019-06-10T17:21:42.061Z,291.20
2019-06-10T17:24:12.644Z,226.37
2019-06-10T17:26:42.632Z,115.30
2019-06-10T17:29:11.368Z,65.40
2019-06-10T17:31:42.449Z,65.20
2019-06-10T17:34:12.989Z,61.47
2019-06-10T17:36:42.678Z,65.47
2019-06-10T17:39:12.520Z,58.50
2019-06-10T17:41:42.667Z,68.83
2019-06-10T17:44:13.107Z,82.27
2019-06-10T17:46:42.625Z,49.23
2019-06-10T17:49:15.198Z,46.40
2019-06-10T17:51:44.176Z,45.00
2019-06-10T17:54:13.142Z,38.90
2019-06-10T17:56:42.668Z,29.20
2019-06-10T17:59:12.831Z,21.30
2019-06-10T18:01:41.979Z,19.47
2019-06-10T18:04:24.016Z,16.70
2019-06-10T18:06:54.069Z,19.27
2019-06-10T18:09:24.823Z,14.97
2019-06-10T18:11:53.787Z,15.47
2019-06-10T18:14:23.283Z,16.20
2019-06-10T18:16:58.037Z,20.40
2019-06-10T18:19:35.923Z,15.67
2019-06-10T18:22:03.007Z,16.07
2019-06-10T18:24:32.995Z,17.13
2019-06-10T18:27:02.350Z,14.53
2019-06-10T18:29:33.640Z,18.20
2019-06-10T18:32:03.467Z,21.73
2019-06-10T18:34:36.214Z,18.70
2019-06-10T18:37:03.385Z,21.10
2019-06-10T18:39:33.514Z,27.03
2019-06-10T18:42:03.353Z,23.03
2019-06-10T18:44:34.398Z,18.57
2019-06-10T18:47:03.402Z,20.97
2019-06-10T18:49:34.029Z,17.70
2019-06-10T18:52:03.118Z,16.57
2019-06-10T18:54:33.902Z,18.37
2019-06-10T18:57:02.953Z,19.23
2019-06-10T18:59:33.144Z,19.37
2019-06-10T19:02:06.214Z,21.10
2019-06-10T19:04:35.218Z,19.60
2019-06-10T19:07:04.164Z,20.93
2019-06-10T19:09:35.883Z,20.00
2019-06-10T19:12:04.234Z,20.60
2019-06-10T19:14:35.129Z,21.10
2019-06-10T19:17:03.611Z,23.77
2019-06-10T19:19:33.915Z,28.97
2019-06-10T19:22:08.932Z,24.90
2019-06-10T19:24:36.311Z,29.40
2019-06-10T19:27:24.030Z,27.87
2019-06-10T19:29:54.893Z,27.73
2019-06-10T19:32:24.076Z,27.07
2019-06-10T19:34:53.470Z,24.70
2019-06-10T19:37:22.460Z,27.57
2019-06-10T19:39:54.036Z,24.47
2019-06-10T19:42:22.526Z,24.97
2019-06-10T19:44:52.391Z,23.37
2019-06-10T19:47:23.373Z,24.80
2019-06-10T19:49:52.283Z,28.43
2019-06-10T19:52:23.312Z,24.47
2019-06-10T19:54:53.081Z,27.40
2019-06-10T19:57:22.127Z,25.33
2019-06-10T20:00:07.396Z,24.17
2019-06-10T20:02:22.884Z,25.50
2019-06-10T20:04:52.780Z,23.10
2019-06-10T20:07:22.953Z,23.97
2019-06-10T20:09:52.316Z,26.50
2019-06-10T20:12:22.899Z,25.97
2019-06-10T20:14:52.850Z,27.50
2019-06-10T20:17:22.753Z,24.17
2019-06-10T20:19:51.881Z,23.73
2019-06-10T20:22:22.849Z,26.90
2019-06-10T20:24:52.464Z,24.60
2019-06-10T20:27:22.672Z,25.33
2019-06-10T20:30:04.677Z,28.83
2019-06-10T20:32:23.010Z,27.23
2019-06-10T20:34:52.861Z,25.97
2019-06-10T20:37:22.599Z,34.60
2019-06-10T20:39:53.663Z,29.87
2019-06-10T20:42:23.137Z,30.77
2019-06-10T20:44:52.135Z,29.17
2019-06-10T20:47:23.019Z,29.03
2019-06-10T20:49:55.817Z,29.03
2019-06-10T20:52:22.227Z,30.47
2019-06-10T20:54:53.268Z,32.17
2019-06-10T20:57:22.632Z,30.87
2019-06-10T20:59:51.600Z,31.70
2019-06-10T21:02:22.497Z,31.83
2019-06-10T21:04:53.141Z,32.27
2019-06-10T21:07:23.188Z,37.40
2019-06-10T21:09:53.435Z,31.60
2019-06-10T21:12:23.862Z,35.23
2019-06-10T21:14:53.169Z,34.00
2019-06-10T21:17:22.791Z,36.40
2019-06-10T21:19:53.784Z,34.30
2019-06-10T21:22:22.450Z,34.70
2019-06-10T21:24:53.391Z,35.83
2019-06-10T21:27:23.770Z,34.50
2019-06-10T21:29:54.741Z,36.20
2019-06-10T21:32:23.135Z,34.40
2019-06-10T21:34:53.741Z,33.63
2019-06-10T21:37:22.713Z,34.33
2019-06-10T21:39:55.209Z,33.27
2019-06-10T21:42:22.924Z,33.60
2019-06-10T21:44:52.138Z,31.87
2019-06-10T21:47:23.319Z,33.40
2019-06-10T21:49:54.069Z,32.50
2019-06-10T21:52:22.016Z,32.77
2019-06-10T21:54:50.887Z,32.23
2019-06-10T21:57:21.981Z,31.47
2019-06-10T21:59:51.502Z,31.33
2019-06-10T22:02:23.132Z,32.30
2019-06-10T22:04:53.832Z,32.57
2019-06-10T22:07:22.505Z,33.87
2019-06-10T22:09:54.180Z,33.53
2019-06-10T22:12:22.063Z,35.67
2019-06-10T22:14:50.848Z,30.80
2019-06-10T22:17:19.642Z,32.10
2019-06-10T22:19:48.580Z,33.27
2019-06-10T22:22:17.411Z,32.60
2019-06-10T22:24:46.674Z,33.20
2019-06-10T22:27:15.095Z,35.47
2019-06-10T22:29:45.053Z,35.67
2019-06-10T22:32:13.951Z,33.70
2019-06-10T22:34:42.851Z,33.30
2019-06-10T22:37:12.514Z,33.03
2019-06-10T22:39:42.081Z,32.17
2019-06-10T22:42:12.278Z,32.80
2019-06-10T22:44:42.453Z,32.73
2019-06-10T22:47:12.159Z,32.97
2019-06-10T22:49:43.249Z,33.00
2019-06-10T22:52:12.602Z,32.20
2019-06-10T22:54:42.987Z,32.77
2019-06-10T22:57:12.957Z,32.80
2019-06-10T22:59:42.522Z,31.30
2019-06-10T23:02:13.141Z,31.43
2019-06-10T23:04:43.484Z,33.53
2019-06-10T23:07:13.296Z,31.93
2019-06-10T23:09:42.877Z,31.37
2019-06-10T23:12:12.234Z,32.53
2019-06-10T23:14:43.248Z,31.77
2019-06-10T23:17:14.024Z,32.77
2019-06-10T23:19:42.802Z,30.27
2019-06-10T23:22:12.643Z,31.67
2019-06-10T23:24:42.623Z,31.03
2019-06-10T23:27:13.143Z,32.03
2019-06-10T23:29:42.740Z,32.07
2019-06-10T23:32:13.003Z,31.13
2019-06-10T23:34:42.305Z,32.10
2019-06-10T23:37:12.561Z,32.00
2019-06-10T23:39:42.583Z,31.70
2019-06-10T23:42:12.231Z,32.50
2019-06-10T23:44:41.283Z,33.23
2019-06-10T23:47:12.243Z,34.10
2019-06-10T23:49:40.574Z,32.67
2019-06-10T23:52:09.493Z,34.20
2019-06-10T23:54:38.577Z,33.57
2019-06-10T23:57:07.373Z,33.70
2019-06-10T23:59:36.300Z,33.57
